Time;durP1;ratioP1;P1;durP2;ratioP2;P2;SDS_P1;SDS_P2;PMS_P1;PMS_P2;Temp;Humidity;BMP_temperature;BMP_pressure;BME280_temperature;BME280_humidity;BME280_pressure;Samples;Min_cycle;Max_cycle;Signal;HPM_P1;HPM_P2
2022/10/18 00:03:12;;;;;;;25.50;13.30;;;;;;;13.71;100.00;102262.03;10460378;28;20045;-76
2022/10/18 00:08:14;;;;;;;24.40;12.73;;;;;;;13.68;100.00;102264.78;10463107;28;20053;-76
2022/10/18 00:13:17;;;;;;;;;;;;;;;13.56;100.00;102253.75;10490143;28;20053;-77
2022/10/18 00:18:22;;;;;;;23.23;12.48;;;;;;;13.60;100.00;102250.13;10503692;28;19925;-78
2022/10/18 00:23:24;;;;;;;22.45;12.93;;;;;;;13.57;100.00;102263.34;10503814;28;20055;-77
2022/10/18 00:28:27;;;;;;;19.80;12.68;;;;;;;13.58;100.00;102256.34;10503368;28;20063;-78
2022/10/18 00:33:29;;;;;;;31.02;13.80;;;;;;;13.54;100.00;102258.19;10501284;28;20087;-75
2022/10/18 00:38:32;;;;;;;27.95;13.23;;;;;;;13.53;100.00;102248.63;10503086;28;20093;-77
2022/10/18 00:43:56;;;;;;;22.25;11.98;;;;;;;13.52;100.00;102254.78;10503194;28;20048;-77
2022/10/18 00:49:02;;;;;;;21.88;12.55;;;;;;;13.54;100.00;102260.81;10503257;28;20094;-79
2022/10/18 00:54:04;;;;;;;28.10;13.60;;;;;;;13.51;100.00;102258.28;10502752;28;20072;-77
2022/10/18 00:59:08;;;;;;;29.45;13.63;;;;;;;13.56;100.00;102264.25;10502436;28;20048;-77
2022/10/18 01:04:10;;;;;;;24.17;13.65;;;;;;;13.57;100.00;102265.09;10499971;28;20052;-76
2022/10/18 01:09:25;;;;;;;;;;;;;;;13.51;100.00;102271.38;10502543;28;20056;-78
2022/10/18 01:14:45;;;;;;;20.35;13.25;;;;;;;13.55;100.00;102280.88;10501839;28;19920;-78
2022/10/18 01:20:13;;;;;;;21.15;13.32;;;;;;;13.56;100.00;102274.75;10502286;28;20055;-77
2022/10/18 01:25:32;;;;;;;21.50;12.73;;;;;;;13.56;100.00;102271.25;10501989;28;20044;-78
2022/10/18 01:30:47;;;;;;;25.63;12.18;;;;;;;13.55;100.00;102273.00;10500506;28;20062;-77
2022/10/18 01:35:59;;;;;;;24.23;13.10;;;;;;;13.54;100.00;102271.31;10497419;28;20040;-75
2022/10/18 01:41:05;;;;;;;27.75;13.82;;;;;;;13.52;100.00;102278.38;10494095;28;20106;-77
2022/10/18 01:46:10;;;;;;;27.42;14.07;;;;;;;13.52;100.00;102278.38;10449757;28;20045;-78
2022/10/18 01:51:11;;;;;;;19.83;13.25;;;;;;;13.53;100.00;102280.09;10452954;28;20075;-76
2022/10/18 01:56:26;;;;;;;22.02;12.80;;;;;;;13.52;100.00;102267.88;10466890;28;20103;-63
2022/10/18 02:01:43;;;;;;;22.25;13.82;;;;;;;13.53;100.00;102274.84;10452912;28;20052;-64
2022/10/18 02:06:55;;;;;;;22.90;13.50;;;;;;;13.52;100.00;102278.38;10454107;28;20068;-62
2022/10/18 02:11:59;;;;;;;28.45;13.52;;;;;;;13.41;100.00;102277.81;10455104;28;20115;-64
2022/10/18 02:17:07;;;;;;;26.65;14.30;;;;;;;13.43;100.00;102274.25;10452787;28;20075;-62
2022/10/18 02:22:12;;;;;;;22.52;13.68;;;;;;;13.42;100.00;102276.91;10457407;28;20090;-77
2022/10/18 02:27:15;;;;;;;29.88;13.52;;;;;;;13.42;100.00;102276.91;10456189;28;20344;-79
2022/10/18 02:32:31;;;;;;;28.20;14.25;;;;;;;13.38;100.00;102277.00;10453682;28;20121;-78
2022/10/18 02:37:37;;;;;;;22.35;14.40;;;;;;;13.41;100.00;102281.28;10455143;28;20048;-78
2022/10/18 02:42:47;;;;;;;26.50;14.38;;;;;;;13.39;100.00;102283.94;10456236;28;20040;-77
2022/10/18 02:47:50;;;;;;;22.20;14.88;;;;;;;13.43;100.00;102289.09;10455279;28;20045;-78
2022/10/18 02:52:53;;;;;;;28.25;15.30;;;;;;;13.42;100.00;102292.66;10455205;28;20060;-79
2022/10/18 02:57:55;;;;;;;30.30;15.40;;;;;;;13.42;100.00;102280.41;10478198;28;20106;-64
2022/10/18 03:02:58;;;;;;;27.17;16.17;;;;;;;13.42;100.00;102279.53;10492885;28;20480;-63
2022/10/18 03:08:00;;;;;;;29.40;17.63;;;;;;;13.46;100.00;102283.78;10495208;28;20075;-63
2022/10/18 03:13:01;;;;;;;31.83;18.00;;;;;;;13.44;100.00;102286.44;10453661;28;20052;-64
2022/10/18 03:18:04;;;;;;;29.80;18.83;;;;;;;13.45;100.00;102276.81;10455249;28;20053;-77
2022/10/18 03:23:07;;;;;;;32.78;18.98;;;;;;;13.47;100.00;102285.47;10454300;28;20048;-78
2022/10/18 03:28:08;;;;;;;32.85;19.58;;;;;;;13.45;100.00;102292.56;10453529;28;20442;-64
2022/10/18 03:33:13;;;;;;;40.40;21.02;;;;;;;13.46;100.00;102295.13;10451300;28;20084;-62
2022/10/18 03:38:14;;;;;;;39.90;20.77;;;;;;;13.47;100.00;102296.84;10453060;28;20110;-63
2022/10/18 03:43:16;;;;;;;;;;;;;;;13.38;100.00;102291.91;10453806;28;20125;-62
2022/10/18 03:48:19;;;;;;;44.88;20.33;;;;;;;13.42;100.00;102295.25;10453674;28;19952;-75
2022/10/18 03:53:23;;;;;;;36.80;19.45;;;;;;;13.37;100.00;102285.78;10452978;28;20084;-78
2022/10/18 03:58:25;;;;;;;44.90;20.17;;;;;;;13.27;100.00;102274.72;10453068;28;20080;-78
2022/10/18 04:03:28;;;;;;;41.42;21.55;;;;;;;13.19;100.00;102270.63;10450812;28;20049;-77
2022/10/18 04:08:30;;;;;;;39.55;21.17;;;;;;;13.05;100.00;102279.75;10456979;28;20113;-76
2022/10/18 04:13:32;;;;;;;;;;;;;;;12.95;100.00;102278.31;10502275;28;20059;-78
2022/10/18 04:18:35;;;;;;;45.97;21.23;;;;;;;12.88;100.00;102273.28;10501838;28;19927;-77
2022/10/18 04:23:36;;;;;;;35.47;20.65;;;;;;;12.83;100.00;102277.75;10501724;28;20306;-77
2022/10/18 04:28:38;;;;;;;47.38;22.00;;;;;;;12.75;100.00;102283.25;10502135;28;20059;-77
2022/10/18 04:33:41;;;;;;;42.40;21.90;;;;;;;12.80;100.00;102285.72;10499036;28;20067;-78
2022/10/18 04:38:43;;;;;;;40.50;21.05;;;;;;;12.75;100.00;102285.88;10500435;28;20049;-64
2022/10/18 04:43:45;;;;;;;48.97;23.70;;;;;;;12.69;100.00;102293.03;10500314;28;20071;-64
2022/10/18 04:48:48;;;;;;;43.35;20.95;;;;;;;12.69;100.00;102290.41;10500155;28;20045;-63
2022/10/18 04:53:49;;;;;;;55.55;25.58;;;;;;;12.72;100.00;102299.03;10499819;28;20430;-62
2022/10/18 04:58:51;;;;;;;53.53;24.83;;;;;;;12.67;100.00;102302.69;10500340;28;20076;-63
2022/10/18 05:03:54;;;;;;;54.15;25.48;;;;;;;12.71;100.00;102301.69;10497893;28;20056;-63
2022/10/18 05:08:56;;;;;;;60.80;27.10;;;;;;;12.68;100.00;102291.31;10499811;28;20600;-75
2022/10/18 05:13:58;;;;;;;66.35;27.13;;;;;;;12.59;100.00;102295.91;10499999;28;20133;-77
2022/10/18 05:19:04;;;;;;;60.30;26.45;;;;;;;12.54;100.00;102303.03;10499847;28;20101;-76
2022/10/18 05:24:06;;;;;;;63.33;28.10;;;;;;;12.49;100.00;102303.16;10499124;28;20055;-77
2022/10/18 05:29:08;;;;;;;66.97;27.65;;;;;;;12.43;100.00;102307.69;10499232;28;20381;-76
2022/10/18 05:34:11;;;;;;;65.90;26.88;;;;;;;12.47;100.00;102309.34;10497048;28;20056;-77
2022/10/18 05:39:12;;;;;;;67.95;29.25;;;;;;;12.51;100.00;102318.81;10498592;28;20474;-75
2022/10/18 05:44:14;;;;;;;81.70;32.08;;;;;;;12.64;100.00;102310.63;10499189;28;20060;-77
2022/10/18 05:49:17;;;;;;;81.18;31.00;;;;;;;12.70;100.00;102310.47;10498425;28;20112;-77
2022/10/18 05:54:19;;;;;;;80.32;30.65;;;;;;;12.67;100.00;102310.53;10498570;28;20079;-76
2022/10/18 05:59:21;;;;;;;;;;;;;;;12.72;100.00;102325.22;10498628;28;20053;-76
2022/10/18 06:04:24;;;;;;;86.13;32.70;;;;;;;12.67;100.00;102332.38;10494985;28;19924;-62
2022/10/18 06:09:27;;;;;;;91.75;30.40;;;;;;;12.49;100.00;102333.72;10496990;28;20045;-62
2022/10/18 06:14:29;;;;;;;89.68;32.60;;;;;;;12.36;100.00;102344.50;10497042;28;20131;-77
2022/10/18 06:19:32;;;;;;;115.72;30.92;;;;;;;12.35;100.00;102336.69;10497388;28;20045;-78
2022/10/18 06:24:33;;;;;;;313.55;36.38;;;;;;;12.37;100.00;102337.50;10496310;28;20421;-76
2022/10/18 06:29:37;;;;;;;187.68;33.97;;;;;;;12.42;100.00;102347.88;10496382;28;20103;-77
2022/10/18 06:34:40;;;;;;;317.48;36.95;;;;;;;12.44;100.00;102346.06;10493115;28;20044;-63
2022/10/18 06:39:43;;;;;;;223.38;34.80;;;;;;;12.52;100.00;102358.97;10495820;28;20415;-62
2022/10/18 06:44:46;;;;;;;245.65;35.08;;;;;;;12.50;100.00;102353.78;10495346;28;20045;-63
2022/10/18 06:49:50;;;;;;;196.65;33.60;;;;;;;12.52;100.00;102365.03;10495281;28;20132;-63
2022/10/18 06:54:52;;;;;;;184.40;33.05;;;;;;;12.61;100.00;102370.06;10495416;28;20072;-63
2022/10/18 06:59:54;;;;;;;;;;;;;;;12.68;100.00;102380.34;10495189;28;20403;-62
2022/10/18 07:04:57;;;;;;;185.33;34.13;;;;;;;12.57;100.00;102394.59;10492582;28;20346;-63
2022/10/18 07:09:58;;;;;;;255.95;35.20;;;;;;;12.47;100.00;102391.38;10494438;28;20079;-62
2022/10/18 07:15:00;;;;;;;238.20;33.88;;;;;;;12.48;100.00;102410.53;10495550;28;20052;-74
2022/10/18 07:20:05;;;;;;;217.13;34.13;;;;;;;12.41;100.00;102408.97;10495267;28;20079;-76
2022/10/18 07:25:08;;;;;;;200.70;33.65;;;;;;;12.66;100.00;102408.38;10495596;28;20076;-75
2022/10/18 07:30:11;;;;;;;238.65;35.25;;;;;;;12.68;100.00;102427.50;10495350;28;20044;-75
2022/10/18 07:35:14;;;;;;;229.23;34.92;;;;;;;12.83;100.00;102436.72;10492689;28;20048;-75
2022/10/18 07:40:16;;;;;;;205.73;34.15;;;;;;;12.92;100.00;102435.59;10494897;28;20125;-76
2022/10/18 07:45:18;;;;;;;227.05;35.50;;;;;;;12.71;100.00;102443.13;10497771;28;20052;-74
2022/10/18 07:50:21;;;;;;;197.18;35.85;;;;;;;12.78;100.00;102452.56;10503552;28;20509;-75
2022/10/18 07:55:22;;;;;;;129.48;34.53;;;;;;;12.75;100.00;102470.97;10503121;28;20079;-73
2022/10/18 08:00:24;;;;;;;146.90;34.47;;;;;;;12.75;100.00;102476.22;10502525;28;20396;-75
2022/10/18 08:05:29;;;;;;;118.85;31.60;;;;;;;12.93;100.00;102485.34;10499998;28;20056;-75
2022/10/18 08:10:30;;;;;;;117.75;32.08;;;;;;;13.19;100.00;102488.19;10501992;28;20055;-74
2022/10/18 08:15:32;;;;;;;109.38;33.42;;;;;;;13.09;100.00;102495.44;10502072;28;20056;-74
2022/10/18 08:20:35;;;;;;;104.53;32.67;;;;;;;13.72;100.00;102502.50;10501596;28;20180;-75
2022/10/18 08:25:37;;;;;;;94.22;31.75;;;;;;;14.52;100.00;102495.66;10501632;28;20139;-64
2022/10/18 08:30:39;;;;;;;;;;;;;;;13.69;100.00;102511.28;10502137;28;20078;-64
2022/10/18 08:35:42;;;;;;;61.90;25.45;;;;;;;14.49;100.00;102516.78;10498305;28;19946;-65
2022/10/18 08:40:44;;;;;;;38.25;20.88;;;;;;;13.83;100.00;102524.03;10500885;28;20048;-63
2022/10/18 08:45:46;;;;;;;32.05;20.00;;;;;;;13.48;100.00;102523.25;10500445;28;20052;-63
2022/10/18 08:50:54;;;;;;;30.85;18.88;;;;;;;13.46;100.00;102519.78;10500854;28;20052;-64
2022/10/18 08:56:09;;;;;;;32.40;20.52;;;;;;;13.27;100.00;102521.16;10498789;28;20083;-75
2022/10/18 09:01:29;;;;;;;31.45;20.83;;;;;;;13.63;100.00;102530.72;10500425;28;20044;-75
2022/10/18 09:06:40;;;;;;;28.45;20.10;;;;;;;13.28;100.00;102535.13;10498100;28;20412;-75
2022/10/18 09:12:00;;;;;;;27.77;19.70;;;;;;;13.82;100.00;102530.16;10495135;28;20815;-75
2022/10/18 09:17:18;;;;;;;22.55;16.40;;;;;;;14.26;100.00;102531.47;10456999;28;20743;-76
2022/10/18 09:22:38;;;;;;;21.92;15.20;;;;;;;14.86;100.00;102535.75;10454725;28;20071;-75
2022/10/18 09:27:55;;;;;;;23.35;13.85;;;;;;;15.40;100.00;102530.41;10457409;28;20068;-75
2022/10/18 09:33:21;;;;;;;25.98;13.82;;;;;;;15.69;100.00;102531.97;10454938;28;20053;-75
2022/10/18 09:38:32;;;;;;;24.05;14.15;;;;;;;16.08;100.00;102521.78;10470804;28;20052;-65
2022/10/18 09:43:51;;;;;;;23.23;13.15;;;;;;;16.60;100.00;102537.25;10497803;28;20136;-64
2022/10/18 09:49:00;;;;;;;16.52;10.00;;;;;;;16.76;100.00;102538.41;10493689;28;20056;-62
2022/10/18 09:54:24;;;;;;;23.10;10.82;;;;;;;19.25;100.00;102548.03;10497555;28;20146;-65
2022/10/18 09:59:37;;;;;;;15.73;9.57;;;;;;;18.39;100.00;102538.22;10496757;28;20098;-65
2022/10/18 10:04:39;;;;;;;17.17;9.45;;;;;;;18.09;100.00;102533.47;10494121;28;20106;-65
2022/10/18 10:09:46;;;;;;;19.52;10.27;;;;;;;20.16;100.00;102538.75;10495896;28;20049;-62
2022/10/18 10:14:48;;;;;;;18.73;8.52;;;;;;;19.36;100.00;102534.25;10480798;28;20052;-63
2022/10/18 10:20:00;;;;;;;19.90;8.55;;;;;;;16.46;100.00;102529.91;10453520;28;20091;-65
2022/10/18 10:25:07;;;;;;;19.98;9.63;;;;;;;17.60;100.00;102532.16;10454842;28;20072;-77
2022/10/18 10:30:25;;;;;;;15.32;9.85;;;;;;;16.67;100.00;102535.25;10496171;28;20044;-74
2022/10/18 10:35:34;;;;;;;19.38;8.68;;;;;;;19.04;100.00;102534.97;10493979;28;20052;-74
2022/10/18 10:40:49;;;;;;;13.82;8.98;;;;;;;19.52;100.00;102549.31;10495210;28;20071;-75
2022/10/18 10:46:03;;;;;;;17.45;9.00;;;;;;;18.38;97.18;102547.09;10495710;28;20126;-76
2022/10/18 10:51:08;;;;;;;18.23;8.63;;;;;;;19.17;86.81;102566.13;10495547;28;20098;-74
2022/10/18 10:56:25;;;;;;;16.38;9.20;;;;;;;17.82;97.84;102560.25;10471621;28;20075;-74
2022/10/18 11:01:31;;;;;;;19.50;9.23;;;;;;;17.11;100.00;102559.81;10495351;28;20060;-73
2022/10/18 11:07:06;;;;;;;19.95;8.80;;;;;;;18.04;89.00;102569.78;10493084;28;20070;-73
2022/10/18 11:12:26;;;;;;;16.33;7.45;;;;;;;17.27;91.67;102569.72;10479582;28;20508;-72
2022/10/18 11:17:39;;;;;;;16.53;8.67;;;;;;;16.94;91.26;102568.41;10495632;28;20052;-74
2022/10/18 11:22:56;;;;;;;14.00;8.10;;;;;;;16.91;93.64;102573.81;10494553;28;20049;-71
2022/10/18 11:28:12;;;;;;;15.40;8.52;;;;;;;17.52;89.32;102573.91;10495395;28;20048;-73
2022/10/18 11:33:31;;;;;;;15.25;7.15;;;;;;;19.54;91.32;102569.47;10493185;28;20106;-74
2022/10/18 11:38:47;;;;;;;15.95;6.55;;;;;;;19.51;79.75;102563.47;10493607;28;20055;-77
2022/10/18 11:43:57;;;;;;;14.23;5.90;;;;;;;19.43;83.13;102569.16;10457432;28;20087;-72
2022/10/18 11:49:26;;;;;;;13.73;5.30;;;;;;;17.97;82.56;102554.22;10453222;28;20045;-72
2022/10/18 11:54:51;;;;;;;9.48;4.95;;;;;;;17.90;79.74;102563.38;10452061;28;20123;-70
2022/10/18 12:00:15;;;;;;;12.32;4.20;;;;;;;17.63;83.63;102571.63;10479894;28;20048;-70
2022/10/18 12:05:18;;;;;;;10.75;3.15;;;;;;;18.05;74.53;102563.56;10470808;28;20478;-72
2022/10/18 12:10:22;;;;;;;8.40;2.85;;;;;;;17.56;74.13;102557.00;10452171;28;20547;-73
2022/10/18 12:15:29;;;;;;;12.27;2.72;;;;;;;18.57;76.43;102554.13;10452032;28;20144;-72
2022/10/18 12:20:36;;;;;;;8.63;3.30;;;;;;;18.15;76.42;102549.03;10452622;28;20095;-71
2022/10/18 12:25:45;;;;;;;9.00;2.78;;;;;;;17.98;81.07;102544.53;10453339;28;20083;-70
2022/10/18 12:31:02;;;;;;;11.25;3.13;;;;;;;17.69;77.46;102544.09;10454972;28;20150;-72
2022/10/18 12:36:27;;;;;;;8.77;3.13;;;;;;;18.18;79.16;102542.75;10458907;28;20053;-65
2022/10/18 12:41:33;;;;;;;13.27;3.22;;;;;;;18.51;79.35;102540.25;10460667;28;20049;-67
2022/10/18 12:46:50;;;;;;;13.98;3.45;;;;;;;19.19;74.82;102537.78;10468703;28;20435;-66
2022/10/18 12:51:57;;;;;;;11.15;3.80;;;;;;;18.14;73.64;102534.13;10501971;28;20079;-65
2022/10/18 12:57:01;;;;;;;9.88;3.15;;;;;;;20.04;73.96;102529.72;10476788;28;20462;-64
2022/10/18 13:02:23;;;;;;;10.48;2.88;;;;;;;19.68;73.22;102530.81;10499377;28;20481;-66
2022/10/18 13:07:39;;;;;;;9.98;2.85;;;;;;;17.68;74.21;102530.03;10501629;28;20045;-68
2022/10/18 13:13:06;;;;;;;11.70;2.78;;;;;;;18.15;72.46;102530.53;10500806;28;20102;-73
2022/10/18 13:18:25;;;;;;;18.20;3.28;;;;;;;18.35;73.25;102520.81;10500517;28;20510;-73
2022/10/18 13:23:48;;;;;;;7.82;2.60;;;;;;;18.28;75.82;102518.44;10500742;28;20105;-69
2022/10/18 13:29:00;;;;;;;10.45;2.97;;;;;;;18.69;71.01;102521.78;10500440;28;20465;-68
2022/10/18 13:34:31;;;;;;;11.43;2.60;;;;;;;17.35;77.36;102525.38;10497601;28;20416;-68
2022/10/18 13:39:34;;;;;;;8.43;2.75;;;;;;;17.42;75.88;102518.91;10499810;28;20051;-68
2022/10/18 13:44:38;;;;;;;11.35;2.22;;;;;;;18.18;77.63;102522.47;10498700;28;20090;-69
2022/10/18 13:50:01;;;;;;;10.27;2.45;;;;;;;18.34;75.74;102524.38;10499093;28;20052;-70
2022/10/18 13:55:35;;;;;;;10.02;2.40;;;;;;;17.57;75.74;102527.91;10481717;28;20140;-67
2022/10/18 14:00:56;;;;;;;12.38;2.83;;;;;;;17.76;81.96;102525.25;10416281;28;20053;-66
2022/10/18 14:06:07;;;;;;;10.20;2.40;;;;;;;17.66;76.39;102521.34;10490109;28;20401;-66
2022/10/18 14:11:23;;;;;;;8.65;2.17;;;;;;;17.87;79.92;102521.25;10497908;28;20138;-66
2022/10/18 14:16:42;;;;;;;11.18;2.30;;;;;;;17.19;73.23;102531.31;10498612;28;20102;-67
2022/10/18 14:21:56;;;;;;;8.77;2.30;;;;;;;17.47;73.20;102530.09;10497547;28;20078;-66
2022/10/18 14:27:17;;;;;;;6.95;2.13;;;;;;;18.11;71.28;102535.13;10479605;28;20056;-65
2022/10/18 14:32:26;;;;;;;7.65;2.13;;;;;;;17.59;72.73;102527.81;10495725;28;20052;-67
2022/10/18 14:37:36;;;;;;;8.27;2.30;;;;;;;17.30;72.81;102537.88;10497339;28;20550;-66
2022/10/18 14:42:48;;;;;;;9.23;2.30;;;;;;;17.27;72.99;102535.41;10496973;28;20054;-67
2022/10/18 14:47:51;;;;;;;5.43;2.03;;;;;;;17.03;70.85;102536.38;10477811;28;20068;-66
2022/10/18 14:52:54;;;;;;;11.25;2.20;;;;;;;16.98;76.32;102533.91;10455146;28;20545;-66
2022/10/18 14:57:57;;;;;;;11.65;2.33;;;;;;;16.83;76.38;102530.16;10453265;28;20048;-69
2022/10/18 15:02:58;;;;;;;6.10;2.13;;;;;;;16.66;74.07;102525.59;10453068;28;20049;-69
2022/10/18 15:08:03;;;;;;;6.43;1.95;;;;;;;16.65;74.29;102529.16;10454383;28;20061;-69
2022/10/18 15:13:05;;;;;;;6.93;1.92;;;;;;;16.50;74.60;102532.41;10454415;28;20053;-69
2022/10/18 15:18:21;;;;;;;9.90;2.00;;;;;;;16.51;73.54;102536.75;10454697;28;20457;-70
2022/10/18 15:23:30;;;;;;;6.20;1.80;;;;;;;16.29;76.36;102529.75;10454602;28;20108;-69
2022/10/18 15:28:38;;;;;;;8.45;2.10;;;;;;;16.06;80.09;102526.22;10454434;28;20136;-69
2022/10/18 15:33:40;;;;;;;16.45;2.10;;;;;;;15.90;82.82;102529.44;10451656;28;20052;-69
2022/10/18 15:38:44;;;;;;;;;;;;;;;15.54;86.61;102532.53;10455427;28;20075;-68
2022/10/18 15:43:46;;;;;;;9.90;1.90;;;;;;;15.28;86.46;102532.56;10454095;28;19971;-69
2022/10/18 15:48:49;;;;;;;;;;;;;;;15.02;89.61;102531.69;10481658;28;20053;-70
2022/10/18 15:53:54;;;;;;;11.75;2.10;;;;;;;14.77;91.46;102536.91;10496524;28;20320;-69
2022/10/18 15:58:59;;;;;;;9.43;1.80;;;;;;;14.48;99.65;102534.31;10462416;28;20053;-70
2022/10/18 16:04:18;;;;;;;10.82;2.00;;;;;;;14.28;94.42;102527.06;10451376;28;20041;-69
2022/10/18 16:09:24;;;;;;;12.50;1.77;;;;;;;14.02;95.50;102539.22;10460054;28;20057;-66
2022/10/18 16:14:26;;;;;;;11.68;2.53;;;;;;;13.74;99.17;102529.53;10460272;28;20452;-64
2022/10/18 16:19:30;;;;;;;18.80;2.35;;;;;;;13.48;100.00;102541.59;10460164;28;20067;-64
2022/10/18 16:24:33;;;;;;;13.10;1.95;;;;;;;13.18;100.00;102541.50;10459915;28;20044;-64
2022/10/18 16:29:35;;;;;;;12.43;2.00;;;;;;;12.84;100.00;102544.13;10459781;28;20068;-64
2022/10/18 16:34:37;;;;;;;7.57;1.77;;;;;;;12.51;100.00;102549.25;10457145;28;20076;-64
2022/10/18 16:39:40;;;;;;;10.88;2.10;;;;;;;12.22;100.00;102553.41;10459842;28;20072;-64
2022/10/18 16:44:44;;;;;;;12.05;2.22;;;;;;;11.93;100.00;102554.84;10459015;28;20056;-64
2022/10/18 16:49:45;;;;;;;11.18;2.33;;;;;;;11.69;100.00;102577.97;10458863;28;20470;-64
2022/10/18 16:54:48;;;;;;;8.57;1.85;;;;;;;11.52;100.00;102576.56;10488214;28;20404;-64
2022/10/18 16:59:50;;;;;;;13.18;2.50;;;;;;;11.35;100.00;102589.09;10467303;28;20067;-64
2022/10/18 17:04:52;;;;;;;8.32;2.35;;;;;;;11.16;100.00;102592.00;10455495;28;20514;-66
2022/10/18 17:09:55;;;;;;;10.85;2.35;;;;;;;10.99;100.00;102595.78;10459038;28;20110;-64
2022/10/18 17:14:56;;;;;;;12.35;2.20;;;;;;;10.75;100.00;102594.38;10499051;28;20450;-65
2022/10/18 17:19:58;;;;;;;13.80;2.35;;;;;;;10.58;100.00;102581.59;10498166;28;20114;-65
2022/10/18 17:25:01;;;;;;;10.60;2.40;;;;;;;10.45;100.00;102592.19;10498532;28;20476;-64
2022/10/18 17:30:03;;;;;;;8.90;2.63;;;;;;;10.28;100.00;102589.78;10498129;28;20048;-63
2022/10/18 17:35:06;;;;;;;15.32;2.85;;;;;;;10.11;100.00;102597.81;10494112;28;20534;-64
2022/10/18 17:40:11;;;;;;;12.88;3.20;;;;;;;9.93;100.00;102607.59;10497486;28;20078;-64
2022/10/18 17:45:12;;;;;;;11.88;2.70;;;;;;;9.82;100.00;102609.47;10498008;28;20068;-64
2022/10/18 17:50:16;;;;;;;8.80;2.50;;;;;;;9.72;100.00;102617.38;10496556;28;20106;-64
2022/10/18 17:55:19;;;;;;;24.40;2.88;;;;;;;9.56;100.00;102623.63;10497280;28;20044;-65
2022/10/18 18:00:23;;;;;;;9.13;2.60;;;;;;;9.47;100.00;102627.16;10495892;28;20049;-64
2022/10/18 18:05:26;;;;;;;12.60;2.22;;;;;;;9.39;100.00;102622.03;10493602;28;20174;-64
2022/10/18 18:10:29;;;;;;;12.65;3.35;;;;;;;9.22;100.00;102628.25;10495857;28;20053;-64
2022/10/18 18:15:31;;;;;;;7.07;2.55;;;;;;;9.17;100.00;102624.81;10495938;28;20040;-64
2022/10/18 18:20:33;;;;;;;13.43;3.10;;;;;;;9.06;100.00;102626.66;10495435;28;20068;-68
2022/10/18 18:25:36;;;;;;;10.88;3.30;;;;;;;8.90;100.00;102624.16;10495127;28;20048;-70
2022/10/18 18:30:39;;;;;;;10.52;3.97;;;;;;;8.83;100.00;102636.31;10494598;28;20067;-69
2022/10/18 18:35:41;;;;;;;15.15;4.07;;;;;;;8.75;100.00;102627.72;10492878;28;20454;-69
2022/10/18 18:40:45;;;;;;;14.25;3.88;;;;;;;8.70;100.00;102627.75;10494363;28;20117;-69
2022/10/18 18:45:51;;;;;;;16.13;3.95;;;;;;;8.64;100.00;102622.56;10494508;28;20079;-69
2022/10/18 18:50:53;;;;;;;10.90;4.40;;;;;;;8.57;100.00;102623.47;10493878;28;20496;-69
2022/10/18 18:56:02;;;;;;;11.18;4.47;;;;;;;8.58;100.00;102630.41;10494241;28;20053;-69
2022/10/18 19:01:07;;;;;;;17.88;4.57;;;;;;;8.50;100.00;102631.28;10494116;28;20081;-69
2022/10/18 19:06:13;;;;;;;13.23;4.45;;;;;;;8.38;100.00;102639.13;10491630;28;20063;-69
2022/10/18 19:11:20;;;;;;;14.13;3.85;;;;;;;8.30;100.00;102630.50;10493779;28;20555;-69
2022/10/18 19:16:26;;;;;;;13.50;4.43;;;;;;;8.19;100.00;102623.63;10493624;28;20455;-67
2022/10/18 19:21:31;;;;;;;15.68;4.60;;;;;;;8.17;100.00;102635.75;10493955;28;20068;-68
2022/10/18 19:26:43;;;;;;;14.30;4.07;;;;;;;8.09;100.00;102640.13;10494248;28;20062;-69
2022/10/18 19:31:45;;;;;;;13.45;4.82;;;;;;;8.17;100.00;102640.97;10493265;28;20569;-68
2022/10/18 19:36:48;;;;;;;;;;;;;;;8.13;100.00;102641.84;10492086;28;20052;-68
2022/10/18 19:41:54;;;;;;;;;;;;;;;8.01;100.00;102636.69;10497562;28;19920;-68
2022/10/18 19:46:56;;;;;;;9.93;3.78;;;;;;;7.79;100.00;102639.31;10501758;28;20019;-69
2022/10/18 19:51:58;;;;;;;17.80;5.05;;;;;;;7.69;100.00;102643.66;10501757;28;20059;-69
2022/10/18 19:57:03;;;;;;;20.77;7.20;;;;;;;7.68;100.00;102648.00;10501543;28;20106;-68
2022/10/18 20:02:04;;;;;;;19.63;5.93;;;;;;;7.65;100.00;102653.22;10498269;28;20091;-69
2022/10/18 20:07:06;;;;;;;13.23;5.55;;;;;;;7.79;100.00;102650.59;10501370;28;20078;-68
2022/10/18 20:12:09;;;;;;;20.05;6.32;;;;;;;7.58;100.00;102648.88;10501813;28;20064;-68
2022/10/18 20:17:11;;;;;;;16.95;5.25;;;;;;;7.50;100.00;102653.22;10501638;28;20497;-68
2022/10/18 20:22:13;;;;;;;22.77;5.82;;;;;;;7.61;100.00;102648.88;10501292;28;20044;-69
2022/10/18 20:27:16;;;;;;;20.10;6.35;;;;;;;7.57;100.00;102639.34;10499385;28;20086;-68
2022/10/18 20:32:18;;;;;;;12.65;5.82;;;;;;;7.50;100.00;102637.63;10450206;28;20095;-68
2022/10/18 20:37:19;;;;;;;19.25;6.45;;;;;;;7.59;100.00;102637.59;10460812;28;20053;-69
2022/10/18 20:42:22;;;;;;;27.27;6.20;;;;;;;7.65;100.00;102635.00;10456892;28;20075;-68
2022/10/18 20:47:25;;;;;;;22.08;6.90;;;;;;;7.72;100.00;102628.94;10452400;28;20049;-67
2022/10/18 20:52:27;;;;;;;20.00;6.35;;;;;;;7.79;100.00;102634.13;10460103;28;20055;-68
2022/10/18 20:57:30;;;;;;;21.45;6.75;;;;;;;7.70;100.00;102630.66;10460430;28;20099;-69
2022/10/18 21:02:32;;;;;;;17.35;6.53;;;;;;;7.77;100.00;102633.28;10457434;28;20049;-68
2022/10/18 21:07:35;;;;;;;26.77;8.57;;;;;;;7.85;100.00;102635.00;10459787;28;20496;-68
2022/10/18 21:12:38;;;;;;;20.70;7.72;;;;;;;7.76;100.00;102635.00;10459418;28;20364;-68
2022/10/18 21:17:39;;;;;;;25.08;7.75;;;;;;;7.64;100.00;102625.50;10458843;28;20060;-68
2022/10/18 21:22:41;;;;;;;37.88;8.30;;;;;;;7.68;100.00;102626.34;10458117;28;20073;-68
2022/10/18 21:27:45;;;;;;;29.27;7.75;;;;;;;7.55;100.00;102620.28;10457490;28;20052;-68
2022/10/18 21:32:48;;;;;;;22.45;7.10;;;;;;;7.56;100.00;102632.44;10455307;28;20049;-68
2022/10/18 21:37:50;;;;;;;17.40;7.25;;;;;;;7.46;100.00;102632.44;10457152;28;20493;-69
2022/10/18 21:42:53;;;;;;;25.30;8.10;;;;;;;7.25;100.00;102628.09;10456945;28;20049;-68
2022/10/18 21:47:54;;;;;;;20.15;8.80;;;;;;;7.32;100.00;102621.16;10457050;28;20320;-69
2022/10/18 21:52:56;;;;;;;27.73;9.43;;;;;;;7.33;100.00;102620.31;10456561;28;20110;-68
2022/10/18 21:57:59;;;;;;;24.65;9.75;;;;;;;7.16;100.00;102622.91;10456568;28;20052;-68
2022/10/18 22:03:07;;;;;;;29.15;10.20;;;;;;;7.17;100.00;102620.31;10453039;28;20103;-68
2022/10/18 22:08:10;;;;;;;28.33;11.43;;;;;;;6.94;100.00;102613.38;10455841;28;20067;-68
2022/10/18 22:13:13;;;;;;;28.98;9.90;;;;;;;6.91;100.00;102612.50;10455449;28;20492;-68
2022/10/18 22:18:15;;;;;;;31.95;12.55;;;;;;;6.80;100.00;102607.28;10455650;28;20048;-69
2022/10/18 22:23:17;;;;;;;25.00;12.40;;;;;;;6.76;100.00;102602.94;10455362;28;20045;-68
2022/10/18 22:28:20;;;;;;;40.77;12.73;;;;;;;6.73;100.00;102610.72;10455583;28;20063;-68
2022/10/18 22:33:22;;;;;;;29.17;11.75;;;;;;;6.55;100.00;102607.22;10453168;28;20053;-68
2022/10/18 22:38:24;;;;;;;28.40;10.88;;;;;;;6.59;100.00;102611.56;10454806;28;20128;-68
2022/10/18 22:43:29;;;;;;;22.40;9.93;;;;;;;6.57;100.00;102615.91;10454975;28;20089;-68
2022/10/18 22:48:32;;;;;;;26.40;10.00;;;;;;;6.46;100.00;102609.81;10454686;28;20082;-68
2022/10/18 22:53:34;;;;;;;25.45;9.65;;;;;;;6.28;100.00;102614.06;10454265;28;20507;-68
2022/10/18 22:58:37;;;;;;;28.20;9.80;;;;;;;6.35;100.00;102613.22;10454198;28;20455;-67
2022/10/18 23:03:39;;;;;;;31.17;10.70;;;;;;;6.23;100.00;102613.19;10451773;28;20083;-66